Tribune, Canada
Current Conditions -  °F | °C
As of 11:35 PM on Monday 20 Oct 2014 (Local Time) from KD50 Reporting Station
Clear Clear  
Wind Chill: 11°   Ceiling: Unl
Heat Index: 11°   Visibility: 10mi
Dew Point:   Wind: 14mph
Humidity: 71%   Direction: 190°S
Pressure: 29.8"   Gusts: NA
Location:  49.25°N, 103.82°W
Report Text: KD50 210535Z AUTO 19012KT 10SM CLR 11/06 A2980 RMK AO2
Loading
Personal Weather Stations






























Interactive Weather Map
Tropical Storm Tracking
New forecast layout! Learn more

10-Day Weather Forecast

Advertisements
Track Severe Weather on mobile